createdAt,value
2018-02-19T00:01:21.724Z,"    0"
2018-02-19T00:06:17.806Z,"    0"
2018-02-19T00:11:13.293Z,"    0"
2018-02-19T00:16:09.163Z,"    0"
2018-02-19T00:21:09.824Z,"    0"
2018-02-19T00:26:05.563Z,"    0"
2018-02-19T00:31:05.921Z,"    0"
2018-02-19T00:36:05.462Z,"    0"
2018-02-19T00:41:04.953Z,"    0"
2018-02-19T00:46:03.381Z,"    0"
2018-02-19T00:50:59.481Z,"    0"
2018-02-19T00:56:00.603Z,"    0"
2018-02-19T01:00:55.300Z,"    0"
2018-02-19T01:05:51.661Z,"    0"
2018-02-19T01:10:51.182Z,"    0"
2018-02-19T01:15:45.879Z,"    0"
2018-02-19T01:20:43.158Z,"    0"
2018-02-19T01:25:39.016Z,"    0"
2018-02-19T01:30:36.438Z,"    0"
2018-02-19T01:35:36.859Z,"    0"
2018-02-19T01:40:31.541Z,"    0"
2018-02-19T01:45:28.244Z,"    0"
2018-02-19T01:50:23.706Z,"    0"
2018-02-19T01:55:20.120Z,"    0"
2018-02-19T02:00:15.518Z,"    0"
2018-02-19T02:05:11.301Z,"    0"
2018-02-19T02:10:06.893Z,"    0"
2018-02-19T02:15:07.533Z,"    0"
2018-02-19T02:20:06.514Z,"    0"
2018-02-19T02:25:05.948Z,"    0"
2018-02-19T02:30:01.291Z,"    0"
2018-02-19T02:34:56.610Z,"    0"
2018-02-19T02:39:55.449Z,"    0"
2018-02-19T02:44:50.609Z,"    0"
2018-02-19T02:49:46.047Z,"    0"
2018-02-19T02:54:41.811Z,"    0"
2018-02-19T02:59:38.269Z,"    0"
2018-02-19T03:04:36.001Z,"    0"
2018-02-19T03:09:31.563Z,"    0"
2018-02-19T03:14:28.228Z,"    0"
2018-02-19T03:19:24.044Z,"    0"
2018-02-19T03:24:19.890Z,"    0"
2018-02-19T03:29:20.382Z,"    0"
2018-02-19T03:34:20.859Z,"    0"
2018-02-19T03:39:19.349Z,"    0"
2018-02-19T03:44:14.212Z,"    0"
2018-02-19T03:49:10.710Z,"    0"
2018-02-19T03:54:07.185Z,"    0"
2018-02-19T03:59:02.856Z,"    0"
2018-02-19T04:04:01.923Z,"    0"
2018-02-19T04:09:03.327Z,"    0"
2018-02-19T04:13:58.780Z,"    0"
2018-02-19T04:18:54.082Z,"    0"
2018-02-19T04:23:53.658Z,"    0"
2018-02-19T04:28:48.731Z,"    0"
2018-02-19T04:33:44.420Z,"    0"
2018-02-19T04:43:43.757Z,"    0"
2018-02-19T04:48:39.747Z,"    0"
2018-02-19T04:53:35.332Z,"    0"
2018-02-19T04:58:31.166Z,"    0"
2018-02-19T05:03:31.220Z,"    0"
2018-02-19T05:08:25.871Z,"    0"
2018-02-19T05:13:22.485Z,"    0"
2018-02-19T05:18:19.050Z,"    0"
2018-02-19T05:23:14.783Z,"    0"
2018-02-19T05:28:11.110Z,"    0"
2018-02-19T05:33:06.738Z,"    0"
2018-02-19T05:38:02.329Z,"    0"
2018-02-19T05:42:57.943Z,"    0"
2018-02-19T05:47:57.469Z,"    0"
2018-02-19T05:52:56.460Z,"    0"
2018-02-19T05:57:55.948Z,"    0"
2018-02-19T06:02:55.631Z,"    0"
2018-02-19T06:07:51.685Z,"    0"
2018-02-19T06:12:51.058Z,"    4"
2018-02-19T06:22:49.705Z,"   16"
2018-02-19T06:27:49.790Z,"   40"
2018-02-19T06:32:45.368Z,"   84"
2018-02-19T06:37:45.665Z,"  144"
2018-02-19T06:42:40.407Z,"  236"
2018-02-19T06:47:38.100Z,"  344"
2018-02-19T06:52:34.066Z,"  484"
2018-02-19T06:57:30.937Z,"  612"
2018-02-19T07:02:27.718Z,"  816"
2018-02-19T07:07:27.236Z,"  928"
2018-02-19T07:12:27.191Z,"  988"
2018-02-19T07:17:22.748Z," 1112"
2018-02-19T07:22:18.873Z," 1312"
2018-02-19T07:27:19.388Z," 1416"
2018-02-19T07:32:19.015Z," 1784"
2018-02-19T07:37:13.450Z," 2144"
2018-02-19T07:42:12.966Z," 2628"
2018-02-19T07:47:07.946Z," 2976"
2018-02-19T07:52:04.637Z," 3368"
2018-02-19T07:57:04.161Z," 3512"
2018-02-19T08:01:59.117Z," 4104"
2018-02-19T08:06:54.948Z," 4984"
2018-02-19T08:11:55.684Z," 4672"
2018-02-19T08:16:51.336Z," 4704"
2018-02-19T08:21:51.618Z," 4864"
2018-02-19T08:26:46.196Z," 5084"
2018-02-19T08:31:46.690Z," 6280"
2018-02-19T08:36:42.034Z," 6080"
2018-02-19T08:41:41.245Z," 6564"
2018-02-19T08:46:41.034Z," 5964"
2018-02-19T08:51:37.067Z," 6452"
2018-02-19T08:56:36.933Z," 7168"
2018-02-19T09:01:31.900Z," 7576"
2018-02-19T09:06:31.690Z," 6768"
2018-02-19T09:11:26.564Z," 6576"
2018-02-19T09:16:23.201Z," 7004"
2018-02-19T09:21:22.584Z," 6796"
2018-02-19T09:26:17.391Z," 6756"
2018-02-19T09:31:16.967Z," 6252"
2018-02-19T09:36:16.692Z," 7836"
2018-02-19T09:41:12.529Z," 7672"
2018-02-19T09:46:12.581Z," 7120"
2018-02-19T09:51:07.535Z," 8804"
2018-02-19T09:56:07.445Z,11324
2018-02-19T10:01:02.701Z," 9600"
2018-02-19T10:05:59.742Z,11280
2018-02-19T10:10:55.542Z,10648
2018-02-19T10:15:51.338Z,11060
2018-02-19T10:20:47.310Z,10624
2018-02-19T10:25:46.979Z,11000
2018-02-19T10:30:41.889Z,13056
2018-02-19T10:35:37.828Z,11076
2018-02-19T10:40:38.179Z,11824
2018-02-19T10:45:32.913Z,12724
2018-02-19T10:50:28.823Z,12356
2018-02-19T10:55:25.043Z,12244
2018-02-19T11:00:25.442Z,12020
2018-02-19T11:05:22.613Z,12296
2018-02-19T11:10:18.654Z,12708
2018-02-19T11:15:15.612Z,14920
2018-02-19T11:20:14.986Z,12488
2018-02-19T11:25:14.747Z,12452
2018-02-19T11:30:09.211Z,12080
2018-02-19T11:35:04.789Z,14160
2018-02-19T11:40:00.005Z,12308
2018-02-19T11:44:59.939Z,13264
2018-02-19T11:49:58.562Z,14856
2018-02-19T11:54:54.595Z,18016
2018-02-19T11:59:50.205Z,15128
2018-02-19T12:04:50.091Z,13540
2018-02-19T12:09:44.873Z,12984
2018-02-19T12:14:41.522Z,15028
2018-02-19T12:19:37.749Z,10964
2018-02-19T12:24:33.351Z," 9480"
2018-02-19T12:29:28.685Z," 9832"
2018-02-19T12:34:28.156Z,11668
2018-02-19T12:39:23.912Z,12336
2018-02-19T12:44:24.150Z,12732
2018-02-19T12:49:20.078Z,12144
2018-02-19T12:54:19.744Z,11016
2018-02-19T12:59:14.780Z,10328
2018-02-19T13:04:11.724Z,13392
2018-02-19T13:09:08.424Z,11152
2018-02-19T13:14:04.032Z,10708
2018-02-19T13:19:00.924Z," 9880"
2018-02-19T13:24:00.137Z,10188
2018-02-19T13:28:54.795Z,10116
2018-02-19T13:33:50.399Z," 9536"
2018-02-19T13:38:46.152Z," 8688"
2018-02-19T13:43:44.703Z," 8336"
2018-02-19T13:48:43.813Z," 8336"
2018-02-19T13:53:39.800Z," 8480"
2018-02-19T13:58:35.354Z," 7852"
2018-02-19T14:03:32.077Z," 7616"
2018-02-19T14:08:31.273Z," 7244"
2018-02-19T14:13:25.971Z," 6620"
2018-02-19T14:18:21.599Z," 6432"
2018-02-19T14:23:16.858Z," 6168"
2018-02-19T14:28:18.530Z," 5748"
2018-02-19T14:33:12.780Z," 5252"
2018-02-19T14:38:08.259Z," 4800"
2018-02-19T14:43:07.715Z," 4408"
2018-02-19T14:48:02.545Z," 3948"
2018-02-19T14:53:01.805Z," 3676"
2018-02-19T14:58:01.443Z," 3292"
2018-02-19T15:02:56.250Z," 3000"
2018-02-19T15:07:55.511Z," 2868"
2018-02-19T15:12:54.958Z," 2756"
2018-02-19T15:17:50.805Z," 2656"
2018-02-19T15:22:50.809Z," 2664"
2018-02-19T15:27:46.600Z," 2628"
2018-02-19T15:32:41.468Z," 2540"
2018-02-19T15:37:42.091Z," 2376"
2018-02-19T15:42:37.957Z," 2204"
2018-02-19T15:47:37.131Z," 2044"
2018-02-19T15:52:31.998Z," 1764"
2018-02-19T15:57:28.898Z," 1396"
2018-02-19T16:02:28.076Z," 1132"
2018-02-19T16:07:26.606Z,"  936"
2018-02-19T16:12:21.352Z,"  812"
2018-02-19T16:17:21.493Z,"  700"
2018-02-19T16:22:16.146Z,"  544"
2018-02-19T16:27:12.316Z,"  424"
2018-02-19T16:32:11.464Z,"  356"
2018-02-19T16:37:06.011Z,"  284"
2018-02-19T16:42:01.522Z,"  216"
2018-02-19T16:46:57.147Z,"  160"
2018-02-19T16:51:53.133Z,"  108"
2018-02-19T16:56:52.679Z,"   64"
2018-02-19T17:01:47.430Z,"   32"
2018-02-19T17:06:43.012Z,"   16"
2018-02-19T17:11:39.727Z,"    8"
2018-02-19T17:16:35.113Z,"    4"
2018-02-19T17:21:30.919Z,"    0"
2018-02-19T17:26:30.455Z,"    0"
2018-02-19T17:31:29.564Z,"    0"
2018-02-19T17:36:24.380Z,"    0"
2018-02-19T17:41:23.903Z,"    0"
2018-02-19T17:46:18.788Z,"    0"
2018-02-19T17:51:18.324Z,"    0"
2018-02-19T17:56:13.028Z,"    0"
2018-02-19T18:01:08.862Z,"    0"
2018-02-19T18:06:04.410Z,"    0"
2018-02-19T18:11:00.320Z,"    0"
2018-02-19T18:15:56.758Z,"    0"
2018-02-19T18:20:56.897Z,"    0"
2018-02-19T18:25:52.285Z,"    0"
2018-02-19T18:30:47.993Z,"    0"
2018-02-19T18:35:47.448Z,"    0"
2018-02-19T18:40:42.378Z,"    0"
2018-02-19T18:45:38.100Z,"    0"
2018-02-19T18:50:39.242Z,"    0"
2018-02-19T18:55:34.662Z,"    0"
2018-02-19T19:00:36.386Z,"    0"
2018-02-19T19:05:32.369Z,"    0"
2018-02-19T19:10:27.980Z,"    0"
2018-02-19T19:15:28.440Z,"    0"
2018-02-19T19:20:24.784Z,"    0"
2018-02-19T19:25:20.359Z,"    0"
2018-02-19T19:30:19.818Z,"    0"
2018-02-19T19:35:18.577Z,"    0"
2018-02-19T19:40:13.197Z,"    0"
2018-02-19T19:45:14.321Z,"    0"
2018-02-19T19:50:13.483Z,"    0"
2018-02-19T19:55:09.040Z,"    0"
2018-02-19T20:00:04.415Z,"    0"
2018-02-19T20:05:03.954Z,"    0"
2018-02-19T20:10:02.517Z,"    0"
2018-02-19T20:15:01.672Z,"    0"
2018-02-19T20:19:56.252Z,"    0"
2018-02-19T20:24:53.858Z,"    0"
2018-02-19T20:29:53.756Z,"    0"
2018-02-19T20:34:48.835Z,"    0"
2018-02-19T20:39:45.553Z,"    0"
2018-02-19T20:44:45.054Z,"    0"
2018-02-19T20:49:39.847Z,"    0"
2018-02-19T20:54:35.653Z,"    0"
2018-02-19T20:59:32.386Z,"    0"
2018-02-19T21:04:31.057Z,"    0"
2018-02-19T21:09:27.558Z,"    0"
2018-02-19T21:14:27.457Z,"    0"
2018-02-19T21:19:22.734Z,"    0"
2018-02-19T21:24:18.406Z,"    0"
2018-02-19T21:29:14.711Z,"    0"
2018-02-19T21:34:14.119Z,"    0"
2018-02-19T21:39:12.805Z,"    0"
2018-02-19T21:44:12.203Z,"    0"
2018-02-19T21:49:07.997Z,"    0"
2018-02-19T21:54:05.541Z,"    0"
2018-02-19T21:59:00.583Z,"    0"
2018-02-19T22:04:02.096Z,"    0"
2018-02-19T22:08:57.441Z,"    0"
2018-02-19T22:13:53.741Z,"    0"
2018-02-19T22:18:50.260Z,"    0"
2018-02-19T22:23:47.025Z,"    0"
2018-02-19T22:28:42.413Z,"    0"
2018-02-19T22:33:38.768Z,"    0"
2018-02-19T22:38:38.312Z,"    0"
2018-02-19T22:43:33.264Z,"    0"
2018-02-19T22:48:30.056Z,"    0"
2018-02-19T22:53:25.547Z,"    0"
2018-02-19T22:58:25.946Z,"    0"
2018-02-19T23:03:25.418Z,"    0"
2018-02-19T23:08:23.446Z,"    0"
2018-02-19T23:13:18.993Z,"    0"
2018-02-19T23:18:14.576Z,"    0"
2018-02-19T23:23:10.212Z,"    0"
2018-02-19T23:28:06.198Z,"    0"
2018-02-19T23:33:02.809Z,"    0"
2018-02-19T23:37:58.275Z,"    0"
2018-02-19T23:42:53.990Z,"    0"
2018-02-19T23:47:49.583Z,"    0"
2018-02-19T23:52:45.337Z,"    0"
2018-02-19T23:57:45.034Z,"    0"
